sensor_id;sensor_type;location;lat;lon;timestamp;temperature;humidity
34472;DHT22;20710;49.976;19.836;2022-09-09T02:24:49;17.39;82.64
34472;DHT22;20710;49.976;19.836;2022-09-09T02:30:55;17.59;83.59
34472;DHT22;20710;49.976;19.836;2022-09-09T02:37:03;17.74;84.36
34472;DHT22;20710;49.976;19.836;2022-09-09T02:43:07;17.88;84.50
34472;DHT22;20710;49.976;19.836;2022-09-09T02:49:18;17.98;84.64
34472;DHT22;20710;49.976;19.836;2022-09-09T02:55:48;18.04;84.43
34472;DHT22;20710;49.976;19.836;2022-09-09T03:01:52;18.04;84.58
34472;DHT22;20710;49.976;19.836;2022-09-09T03:07:54;18.04;84.73
34472;DHT22;20710;49.976;19.836;2022-09-09T03:13:57;18.05;84.79
34472;DHT22;20710;49.976;19.836;2022-09-09T03:20:01;18.04;84.55
34472;DHT22;20710;49.976;19.836;2022-09-09T03:26:04;18.04;84.55
34472;DHT22;20710;49.976;19.836;2022-09-09T03:32:09;17.97;84.19
34472;DHT22;20710;49.976;19.836;2022-09-09T03:38:14;17.74;84.12
34472;DHT22;20710;49.976;19.836;2022-09-09T03:44:18;17.65;84.52
34472;DHT22;20710;49.976;19.836;2022-09-09T03:50:21;17.56;84.67
34472;DHT22;20710;49.976;19.836;2022-09-09T03:56:23;17.48;84.97
34472;DHT22;20710;49.976;19.836;2022-09-09T04:02:24;17.48;85.15
34472;DHT22;20710;49.976;19.836;2022-09-09T04:08:26;17.41;85.50
34472;DHT22;20710;49.976;19.836;2022-09-09T04:14:28;17.35;85.49
34472;DHT22;20710;49.976;19.836;2022-09-09T04:20:30;17.32;85.90
34472;DHT22;20710;49.976;19.836;2022-09-09T04:26:33;17.29;85.70
34472;DHT22;20710;49.976;19.836;2022-09-09T04:32:35;17.28;85.62
34472;DHT22;20710;49.976;19.836;2022-09-09T04:38:39;17.24;85.87
34472;DHT22;20710;49.976;19.836;2022-09-09T04:44:41;17.25;85.63
34472;DHT22;20710;49.976;19.836;2022-09-09T04:50:43;17.36;85.75
34472;DHT22;20710;49.976;19.836;2022-09-09T04:56:46;17.41;85.52
34472;DHT22;20710;49.976;19.836;2022-09-09T05:02:48;17.46;85.55
34472;DHT22;20710;49.976;19.836;2022-09-09T05:08:50;17.57;85.53
34472;DHT22;20710;49.976;19.836;2022-09-09T05:14:54;17.70;85.43
34472;DHT22;20710;49.976;19.836;2022-09-09T05:20:59;17.74;85.15
34472;DHT22;20710;49.976;19.836;2022-09-09T05:27:02;17.83;85.03
34472;DHT22;20710;49.976;19.836;2022-09-09T05:33:04;17.88;84.91
34472;DHT22;20710;49.976;19.836;2022-09-09T05:39:07;17.93;84.64
34472;DHT22;20710;49.976;19.836;2022-09-09T05:45:09;17.94;84.55
34472;DHT22;20710;49.976;19.836;2022-09-09T05:51:15;17.97;84.44
34472;DHT22;20710;49.976;19.836;2022-09-09T05:57:30;18.00;84.34
34472;DHT22;20710;49.976;19.836;2022-09-09T06:03:34;18.11;84.42
34472;DHT22;20710;49.976;19.836;2022-09-09T06:09:36;18.16;84.16
34472;DHT22;20710;49.976;19.836;2022-09-09T06:15:38;18.26;84.19
34472;DHT22;20710;49.976;19.836;2022-09-09T06:21:40;18.42;84.05
34472;DHT22;20710;49.976;19.836;2022-09-09T06:27:50;18.48;83.86
34472;DHT22;20710;49.976;19.836;2022-09-09T06:33:53;18.67;83.90
34472;DHT22;20710;49.976;19.836;2022-09-09T06:39:57;19.04;83.88
34472;DHT22;20710;49.976;19.836;2022-09-09T06:46:12;19.21;83.52
34472;DHT22;20710;49.976;19.836;2022-09-09T06:52:14;19.36;83.07
34472;DHT22;20710;49.976;19.836;2022-09-09T06:58:16;19.43;82.61
34472;DHT22;20710;49.976;19.836;2022-09-09T07:04:19;19.48;82.39
34472;DHT22;20710;49.976;19.836;2022-09-09T07:10:21;19.54;81.95
34472;DHT22;20710;49.976;19.836;2022-09-09T07:16:23;19.80;81.22
34472;DHT22;20710;49.976;19.836;2022-09-09T07:22:28;20.02;80.79
34472;DHT22;20710;49.976;19.836;2022-09-09T07:28:30;20.07;80.03
34472;DHT22;20710;49.976;19.836;2022-09-09T07:34:32;20.11;79.60
34472;DHT22;20710;49.976;19.836;2022-09-09T07:40:35;20.25;79.32
34472;DHT22;20710;49.976;19.836;2022-09-09T07:46:39;20.32;79.12
34472;DHT22;20710;49.976;19.836;2022-09-09T07:52:42;20.60;78.32
34472;DHT22;20710;49.976;19.836;2022-09-09T07:58:49;20.90;77.73
34472;DHT22;20710;49.976;19.836;2022-09-09T08:04:51;21.15;76.85
34472;DHT22;20710;49.976;19.836;2022-09-09T08:10:53;21.29;75.72
34472;DHT22;20710;49.976;19.836;2022-09-09T08:16:56;21.53;75.22
34472;DHT22;20710;49.976;19.836;2022-09-09T08:23:00;21.91;73.78
34472;DHT22;20710;49.976;19.836;2022-09-09T08:29:05;21.97;73.53
34472;DHT22;20710;49.976;19.836;2022-09-09T08:35:08;22.13;72.99
34472;DHT22;20710;49.976;19.836;2022-09-09T08:47:54;22.15;72.26
34472;DHT22;20710;49.976;19.836;2022-09-09T08:53:59;22.07;71.64
34472;DHT22;20710;49.976;19.836;2022-09-09T09:00:07;22.35;71.78
34472;DHT22;20710;49.976;19.836;2022-09-09T09:12:24;23.16;68.14
34472;DHT22;20710;49.976;19.836;2022-09-09T09:18:31;23.34;68.06
34472;DHT22;20710;49.976;19.836;2022-09-09T09:31:11;24.63;67.62
34472;DHT22;20710;49.976;19.836;2022-09-09T09:37:31;24.99;65.06
34472;DHT22;20710;49.976;19.836;2022-09-09T09:43:37;24.50;65.10
34472;DHT22;20710;49.976;19.836;2022-09-09T09:56:12;24.29;66.86
34472;DHT22;20710;49.976;19.836;2022-09-09T10:02:20;25.09;64.93
34472;DHT22;20710;49.976;19.836;2022-09-09T10:08:27;24.95;62.79
34472;DHT22;20710;49.976;19.836;2022-09-09T10:14:47;24.60;63.42
34472;DHT22;20710;49.976;19.836;2022-09-09T11:00:54;24.81;60.80
34472;DHT22;20710;49.976;19.836;2022-09-09T11:07:06;25.30;55.64
34472;DHT22;20710;49.976;19.836;2022-09-09T11:13:45;25.67;55.38
34472;DHT22;20710;49.976;19.836;2022-09-09T11:20:05;26.05;57.13
34472;DHT22;20710;49.976;19.836;2022-09-09T11:26:28;26.36;54.78
34472;DHT22;20710;49.976;19.836;2022-09-09T11:46:08;24.54;55.87
34472;DHT22;20710;49.976;19.836;2022-09-09T11:52:47;24.09;56.54
34472;DHT22;20710;49.976;19.836;2022-09-09T11:59:04;23.60;58.13
34472;DHT22;20710;49.976;19.836;2022-09-09T12:05:11;23.29;58.15
34472;DHT22;20710;49.976;19.836;2022-09-09T12:11:30;22.97;58.95
34472;DHT22;20710;49.976;19.836;2022-09-09T12:17:45;22.81;58.74
34472;DHT22;20710;49.976;19.836;2022-09-09T12:24:23;22.89;59.43
34472;DHT22;20710;49.976;19.836;2022-09-09T12:30:47;23.11;58.60
34472;DHT22;20710;49.976;19.836;2022-09-09T12:36:57;23.27;55.11
34472;DHT22;20710;49.976;19.836;2022-09-09T12:43:18;23.42;54.14
34472;DHT22;20710;49.976;19.836;2022-09-09T12:49:35;23.49;55.04
34472;DHT22;20710;49.976;19.836;2022-09-09T12:55:59;23.51;56.12
34472;DHT22;20710;49.976;19.836;2022-09-09T13:02:21;23.54;54.78
34472;DHT22;20710;49.976;19.836;2022-09-09T13:09:00;23.57;55.40
34472;DHT22;20710;49.976;19.836;2022-09-09T13:15:36;23.57;54.94
34472;DHT22;20710;49.976;19.836;2022-09-09T13:21:56;23.40;55.21
34472;DHT22;20710;49.976;19.836;2022-09-09T13:28:24;23.36;54.21
34472;DHT22;20710;49.976;19.836;2022-09-09T13:35:02;23.43;54.91
34472;DHT22;20710;49.976;19.836;2022-09-09T13:41:07;23.43;53.90
34472;DHT22;20710;49.976;19.836;2022-09-09T13:47:29;23.39;54.33
34472;DHT22;20710;49.976;19.836;2022-09-09T13:53:49;23.39;55.24
34472;DHT22;20710;49.976;19.836;2022-09-09T14:00:12;23.34;55.41
34472;DHT22;20710;49.976;19.836;2022-09-09T14:06:28;23.26;55.60
34472;DHT22;20710;49.976;19.836;2022-09-09T14:12:31;23.18;55.67
34472;DHT22;20710;49.976;19.836;2022-09-09T14:18:34;23.06;56.44
34472;DHT22;20710;49.976;19.836;2022-09-09T14:24:35;22.98;57.02
34472;DHT22;20710;49.976;19.836;2022-09-09T14:31:06;22.91;57.10
34472;DHT22;20710;49.976;19.836;2022-09-09T14:37:32;22.85;56.78
34472;DHT22;20710;49.976;19.836;2022-09-09T14:43:40;22.78;57.06
34472;DHT22;20710;49.976;19.836;2022-09-09T14:49:41;22.75;57.23
34472;DHT22;20710;49.976;19.836;2022-09-09T14:56:24;22.66;57.14
34472;DHT22;20710;49.976;19.836;2022-09-09T15:02:26;22.40;57.76
34472;DHT22;20710;49.976;19.836;2022-09-09T15:08:27;22.30;58.60
34472;DHT22;20710;49.976;19.836;2022-09-09T15:14:29;22.16;59.30
34472;DHT22;20710;49.976;19.836;2022-09-09T15:20:45;22.05;58.99
34472;DHT22;20710;49.976;19.836;2022-09-09T15:27:17;21.95;58.92
34472;DHT22;20710;49.976;19.836;2022-09-09T15:33:20;21.85;59.60
34472;DHT22;20710;49.976;19.836;2022-09-09T15:39:23;21.74;60.13
34472;DHT22;20710;49.976;19.836;2022-09-09T15:45:57;21.63;60.36
34472;DHT22;20710;49.976;19.836;2022-09-09T15:52:12;21.54;60.77
34472;DHT22;20710;49.976;19.836;2022-09-09T15:58:14;21.42;61.21
34472;DHT22;20710;49.976;19.836;2022-09-09T16:10:53;21.29;61.74
34472;DHT22;20710;49.976;19.836;2022-09-09T16:16:55;21.19;61.94
34472;DHT22;20710;49.976;19.836;2022-09-09T16:29:33;21.20;63.45
34472;DHT22;20710;49.976;19.836;2022-09-09T16:35:43;21.23;63.03
34472;DHT22;20710;49.976;19.836;2022-09-09T16:41:49;21.20;63.16
34472;DHT22;20710;49.976;19.836;2022-09-09T16:47:53;21.13;63.44
34472;DHT22;20710;49.976;19.836;2022-09-09T16:54:02;20.99;63.61
34472;DHT22;20710;49.976;19.836;2022-09-09T17:00:32;20.87;64.42
34472;DHT22;20710;49.976;19.836;2022-09-09T17:06:35;20.63;65.27
34472;DHT22;20710;49.976;19.836;2022-09-09T17:12:58;20.44;66.16
34472;DHT22;20710;49.976;19.836;2022-09-09T17:19:20;20.22;67.06
34472;DHT22;20710;49.976;19.836;2022-09-09T17:25:25;20.04;67.79
34472;DHT22;20710;49.976;19.836;2022-09-09T17:31:52;19.89;68.60
34472;DHT22;20710;49.976;19.836;2022-09-09T17:45:47;19.60;69.61
34472;DHT22;20710;49.976;19.836;2022-09-09T17:52:01;19.49;70.17
34472;DHT22;20710;49.976;19.836;2022-09-09T18:04:32;19.25;71.08
34472;DHT22;20710;49.976;19.836;2022-09-09T18:10:39;19.19;71.30
34472;DHT22;20710;49.976;19.836;2022-09-09T18:30:51;19.15;72.53
34472;DHT22;20710;49.976;19.836;2022-09-09T18:37:28;18.94;73.40
34472;DHT22;20710;49.976;19.836;2022-09-09T18:51:32;18.78;73.62
34472;DHT22;20710;49.976;19.836;2022-09-09T19:04:37;18.76;74.26
34472;DHT22;20710;49.976;19.836;2022-09-09T19:11:20;18.60;74.92
34472;DHT22;20710;49.976;19.836;2022-09-09T19:25:11;18.49;75.44
34472;DHT22;20710;49.976;19.836;2022-09-09T19:31:52;18.29;75.97
34472;DHT22;20710;49.976;19.836;2022-09-09T19:45:10;18.04;76.89
34472;DHT22;20710;49.976;19.836;2022-09-09T19:51:36;17.87;77.23
34472;DHT22;20710;49.976;19.836;2022-09-09T19:58:06;17.84;77.84
34472;DHT22;20710;49.976;19.836;2022-09-09T20:04:35;17.81;77.97
34472;DHT22;20710;49.976;19.836;2022-09-09T20:11:15;17.77;77.74
34472;DHT22;20710;49.976;19.836;2022-09-09T20:24:25;17.88;77.55
34472;DHT22;20710;49.976;19.836;2022-09-09T20:31:04;17.84;77.38
34472;DHT22;20710;49.976;19.836;2022-09-09T20:44:00;17.61;78.59
34472;DHT22;20710;49.976;19.836;2022-09-09T20:50:45;17.46;78.32
34472;DHT22;20710;49.976;19.836;2022-09-09T20:56:48;17.45;79.12
34472;DHT22;20710;49.976;19.836;2022-09-09T21:03:13;17.43;79.32
34472;DHT22;20710;49.976;19.836;2022-09-09T21:09:23;17.39;79.36
34472;DHT22;20710;49.976;19.836;2022-09-09T21:15:34;17.31;79.68
34472;DHT22;20710;49.976;19.836;2022-09-09T21:27:58;17.21;79.81
34472;DHT22;20710;49.976;19.836;2022-09-09T21:34:13;17.18;78.26
34472;DHT22;20710;49.976;19.836;2022-09-09T21:40:42;17.15;78.99
34472;DHT22;20710;49.976;19.836;2022-09-09T21:46:44;17.29;79.45
34472;DHT22;20710;49.976;19.836;2022-09-09T21:53:02;17.35;79.66
34472;DHT22;20710;49.976;19.836;2022-09-09T21:59:52;17.29;80.55
34472;DHT22;20710;49.976;19.836;2022-09-09T22:06:20;17.18;80.70
34472;DHT22;20710;49.976;19.836;2022-09-09T22:12:21;17.17;79.37
34472;DHT22;20710;49.976;19.836;2022-09-09T22:18:40;17.21;79.74
34472;DHT22;20710;49.976;19.836;2022-09-09T22:25:15;17.31;80.02
34472;DHT22;20710;49.976;19.836;2022-09-09T22:31:17;17.29;80.91
34472;DHT22;20710;49.976;19.836;2022-09-09T22:37:24;17.29;81.08
34472;DHT22;20710;49.976;19.836;2022-09-09T22:43:25;17.36;80.68
34472;DHT22;20710;49.976;19.836;2022-09-09T22:57:07;17.49;80.87
34472;DHT22;20710;49.976;19.836;2022-09-09T23:03:29;17.43;81.42
34472;DHT22;20710;49.976;19.836;2022-09-09T23:10:18;17.34;81.54
34472;DHT22;20710;49.976;19.836;2022-09-09T23:31:11;17.24;81.76
34472;DHT22;20710;49.976;19.836;2022-09-09T23:37:13;17.17;80.96
34472;DHT22;20710;49.976;19.836;2022-09-09T23:43:19;17.13;81.93
34472;DHT22;20710;49.976;19.836;2022-09-09T23:49:54;17.04;82.80
34472;DHT22;20710;49.976;19.836;2022-09-09T23:56:07;17.00;82.54
